Time;durP1;ratioP1;P1;durP2;ratioP2;P2;SDS_P1;SDS_P2;PMS_P1;PMS_P2;Temp;Humidity;BMP_temperature;BMP_pressure;BME280_temperature;BME280_humidity;BME280_pressure;Samples;Min_cycle;Max_cycle;Signal;HPM_P1;HPM_P2
2022/04/07 00:01:34;;;;;;;16.25;3.40;;;10.20;79.60;;;;;;4895164;29;20439;-83
2022/04/07 00:04:02;;;;;;;11.52;2.90;;;10.20;79.60;;;;;;4887946;29;20053;-84
2022/04/07 00:06:29;;;;;;;11.93;3.10;;;10.20;79.60;;;;;;4887908;29;20105;-84
2022/04/07 00:08:57;;;;;;;10.93;3.08;;;10.20;79.50;;;;;;4887502;29;20056;-83
2022/04/07 00:11:24;;;;;;;8.90;2.50;;;10.20;79.50;;;;;;4885608;29;20056;-83
2022/04/07 00:13:51;;;;;;;17.02;3.17;;;10.20;79.50;;;;;;4883338;29;20053;-83
2022/04/07 00:16:17;;;;;;;12.50;3.42;;;10.20;79.40;;;;;;4898841;29;20680;-84
2022/04/07 00:18:45;;;;;;;14.13;3.40;;;10.20;79.40;;;;;;4889827;29;20056;-82
2022/04/07 00:21:12;;;;;;;13.27;2.92;;;10.20;79.40;;;;;;4887464;29;20045;-82
2022/04/07 00:23:40;;;;;;;12.85;2.70;;;10.20;79.30;;;;;;4887203;29;20083;-83
2022/04/07 00:26:08;;;;;;;13.55;2.55;;;10.20;79.30;;;;;;4882385;29;20218;-83
2022/04/07 00:28:35;;;;;;;13.65;2.65;;;10.20;79.20;;;;;;4894901;29;20135;-84
2022/04/07 00:31:01;;;;;;;14.77;3.10;;;10.30;79.20;;;;;;4887392;29;20053;-82
2022/04/07 00:33:29;;;;;;;9.40;2.53;;;10.20;79.10;;;;;;4887117;29;20395;-83
2022/04/07 00:35:55;;;;;;;16.45;3.33;;;10.30;79.10;;;;;;4887305;29;20076;-83
2022/04/07 00:38:22;;;;;;;11.38;2.45;;;10.20;79.00;;;;;;4883641;29;21115;-83
2022/04/07 00:40:49;;;;;;;12.63;3.00;;;10.30;79.10;;;;;;4881875;29;20057;-83
2022/04/07 00:43:33;;;;;;;14.00;2.55;;;10.30;79.00;;;;;;4885879;29;20049;-84
2022/04/07 00:46:01;;;;;;;;;;;10.30;79.00;;;;;;4887591;29;20105;-80
2022/04/07 00:48:29;;;;;;;12.15;2.85;;;10.30;79.00;;;;;;4887198;29;20030;-84
2022/04/07 00:50:56;;;;;;;7.82;2.33;;;10.30;79.00;;;;;;4887109;29;20096;-83
2022/04/07 00:53:24;;;;;;;12.52;2.72;;;10.30;79.00;;;;;;4883387;29;20482;-83
2022/04/07 00:55:52;;;;;;;11.38;2.60;;;10.30;79.00;;;;;;4882704;29;20056;-84
2022/04/07 00:58:19;;;;;;;10.63;2.50;;;10.30;79.00;;;;;;4883486;29;20120;-82
2022/04/07 01:00:46;;;;;;;10.00;2.53;;;10.30;79.10;;;;;;4886331;29;20060;-82
2022/04/07 01:03:14;;;;;;;12.65;2.90;;;10.40;79.10;;;;;;4886750;29;20421;-82
2022/04/07 01:05:41;;;;;;;15.90;3.03;;;10.30;79.10;;;;;;4886863;29;20052;-83
2022/04/07 01:08:09;;;;;;;12.95;2.65;;;10.30;79.20;;;;;;4882373;29;20052;-83
2022/04/07 01:10:37;;;;;;;13.43;3.03;;;10.30;79.20;;;;;;4881861;29;20060;-82
2022/04/07 01:13:04;;;;;;;8.93;2.45;;;10.30;79.30;;;;;;4897189;29;20550;-82
2022/04/07 01:15:31;;;;;;;8.18;2.13;;;10.30;79.40;;;;;;4890458;29;20083;-82
2022/04/07 01:18:00;;;;;;;13.52;2.60;;;10.30;79.50;;;;;;4886553;29;20498;-82
2022/04/07 01:20:27;;;;;;;11.13;2.60;;;10.30;79.60;;;;;;4885007;29;20068;-82
2022/04/07 01:22:56;;;;;;;11.27;2.55;;;10.30;79.70;;;;;;4881683;29;20053;-82
2022/04/07 01:25:29;;;;;;;10.68;2.20;;;10.30;79.80;;;;;;4884456;29;20117;-82
2022/04/07 01:27:56;;;;;;;9.75;2.20;;;10.30;80.00;;;;;;4886489;29;20057;-82
2022/04/07 01:30:23;;;;;;;11.57;2.33;;;10.30;80.10;;;;;;4886356;29;20522;-82
2022/04/07 01:32:56;;;;;;;7.28;2.05;;;10.30;80.10;;;;;;4886234;29;20048;-82
2022/04/07 01:35:24;;;;;;;7.68;2.20;;;10.30;80.30;;;;;;4884146;29;20056;-82
2022/04/07 01:37:53;;;;;;;10.15;2.20;;;10.30;80.40;;;;;;4881629;29;20135;-82
2022/04/07 01:40:25;;;;;;;8.43;2.42;;;10.30;80.50;;;;;;4882914;29;20063;-82
2022/04/07 01:42:55;;;;;;;6.28;1.75;;;10.30;80.60;;;;;;4886148;29;20049;-82
2022/04/07 01:45:23;;;;;;;5.15;1.95;;;10.30;80.70;;;;;;4886236;29;20108;-82
2022/04/07 01:47:52;;;;;;;7.07;1.80;;;10.20;80.80;;;;;;4886205;29;20057;-82
2022/04/07 01:50:20;;;;;;;9.23;1.95;;;10.20;80.90;;;;;;4883573;29;20064;-83
2022/04/07 01:52:48;;;;;;;8.30;1.75;;;10.20;81.00;;;;;;4881892;29;20053;-82
2022/04/07 01:55:16;;;;;;;5.82;1.52;;;10.20;81.00;;;;;;4884979;29;20064;-82
2022/04/07 01:57:44;;;;;;;6.40;1.67;;;10.20;81.10;;;;;;4886094;29;20606;-83
2022/04/07 02:00:11;;;;;;;5.20;1.60;;;10.20;81.10;;;;;;4886042;29;20137;-82
2022/04/07 02:02:39;;;;;;;7.63;1.40;;;10.20;81.10;;;;;;4886024;29;20052;-82
2022/04/07 02:05:11;;;;;;;6.07;1.58;;;10.20;81.20;;;;;;4881334;29;20057;-82
2022/04/07 02:07:40;;;;;;;4.47;1.40;;;10.20;81.10;;;;;;4893573;29;20514;-82
2022/04/07 02:10:09;;;;;;;4.63;1.30;;;10.20;81.20;;;;;;4885376;29;20057;-81
2022/04/07 02:12:37;;;;;;;5.65;1.75;;;10.20;81.20;;;;;;4887216;29;20053;-82
2022/04/07 02:15:06;;;;;;;7.93;2.08;;;10.10;81.30;;;;;;4889841;29;20049;-82
2022/04/07 02:17:33;;;;;;;5.18;1.65;;;10.10;81.30;;;;;;4888856;29;20052;-82
2022/04/07 02:20:02;;;;;;;7.95;1.80;;;10.10;81.40;;;;;;4884975;29;20061;-82
2022/04/07 02:22:29;;;;;;;7.35;1.60;;;10.10;81.50;;;;;;4886764;29;20061;-82
2022/04/07 02:24:57;;;;;;;6.82;2.33;;;10.10;81.60;;;;;;4889574;29;20105;-82
2022/04/07 02:27:24;;;;;;;10.30;2.40;;;10.10;81.60;;;;;;4889626;29;20052;-83
2022/04/07 02:29:51;;;;;;;5.95;1.98;;;10.10;81.70;;;;;;4889533;29;20383;-82
2022/04/07 02:32:19;;;;;;;7.43;1.98;;;10.10;81.80;;;;;;4886765;29;20053;-82
2022/04/07 02:34:46;;;;;;;6.22;2.08;;;10.10;81.90;;;;;;4884715;29;20053;-82
2022/04/07 02:37:13;;;;;;;5.97;1.83;;;10.10;82.00;;;;;;4888512;29;20045;-82
2022/04/07 02:39:40;;;;;;;8.30;2.40;;;10.10;82.00;;;;;;4889320;29;20578;-82
2022/04/07 02:42:07;;;;;;;9.57;2.45;;;10.10;82.10;;;;;;4888100;29;20078;-83
2022/04/07 02:44:34;;;;;;;7.53;2.10;;;10.10;82.10;;;;;;4888602;29;20044;-82
2022/04/07 02:47:01;;;;;;;9.38;2.50;;;10.00;82.20;;;;;;4884796;29;20116;-82
2022/04/07 02:49:27;;;;;;;13.50;2.67;;;10.10;82.30;;;;;;4886254;29;20109;-82
2022/04/07 02:51:54;;;;;;;10.88;2.67;;;10.10;82.30;;;;;;4889223;29;20057;-82
2022/04/07 02:54:21;;;;;;;8.95;2.63;;;10.10;82.30;;;;;;4888997;29;20057;-83
2022/04/07 02:56:48;;;;;;;13.05;2.50;;;10.00;82.40;;;;;;4889007;29;20049;-84
2022/04/07 02:59:15;;;;;;;9.40;2.50;;;10.10;82.40;;;;;;4885949;29;20052;-85
2022/04/07 03:01:43;;;;;;;8.27;2.30;;;10.10;82.40;;;;;;4884809;29;20048;-85
2022/04/07 03:04:11;;;;;;;9.60;2.45;;;10.00;82.40;;;;;;4898832;29;20044;-83
2022/04/07 03:06:38;;;;;;;11.60;2.92;;;10.00;82.50;;;;;;4892182;29;20057;-83
2022/04/07 03:09:05;;;;;;;12.27;2.58;;;10.00;82.50;;;;;;4888957;29;20045;-83
2022/04/07 03:11:31;;;;;;;10.63;2.72;;;10.10;82.50;;;;;;4887641;29;20489;-82
2022/04/07 03:13:58;;;;;;;14.30;2.63;;;10.10;82.50;;;;;;4884419;29;20044;-82
2022/04/07 03:16:25;;;;;;;11.98;2.25;;;10.10;82.60;;;;;;4886393;29;20061;-84
2022/04/07 03:18:51;;;;;;;10.05;2.63;;;10.00;82.50;;;;;;4888441;29;20037;-82
2022/04/07 03:21:18;;;;;;;17.02;2.92;;;10.00;82.60;;;;;;4888717;29;20049;-83
2022/04/07 03:23:44;;;;;;;10.68;2.53;;;10.10;82.60;;;;;;4888162;29;20049;-83
2022/04/07 03:26:11;;;;;;;10.77;2.47;;;10.00;82.60;;;;;;4885007;29;20126;-83
2022/04/07 03:28:38;;;;;;;10.35;2.63;;;10.00;82.60;;;;;;4884716;29;20053;-82
2022/04/07 03:31:05;;;;;;;13.90;2.80;;;10.00;82.60;;;;;;4888367;29;20480;-83
2022/04/07 03:33:32;;;;;;;13.63;2.88;;;10.00;82.60;;;;;;4887979;29;20053;-82
2022/04/07 03:35:59;;;;;;;11.48;2.67;;;10.00;82.60;;;;;;4888224;29;20081;-83
2022/04/07 03:38:27;;;;;;;11.52;2.63;;;10.00;82.60;;;;;;4886742;29;20096;-82
2022/04/07 03:40:53;;;;;;;12.38;2.35;;;10.00;82.60;;;;;;4883942;29;20056;-82
2022/04/07 03:43:21;;;;;;;15.93;2.75;;;10.00;82.60;;;;;;4886570;29;20064;-82
2022/04/07 03:45:48;;;;;;;14.73;2.65;;;10.00;82.60;;;;;;4888223;29;20057;-82
2022/04/07 03:48:15;;;;;;;16.13;2.88;;;10.00;82.60;;;;;;4887884;29;20403;-83
2022/04/07 03:50:42;;;;;;;11.15;2.72;;;10.00;82.60;;;;;;4886937;29;20565;-83
2022/04/07 03:53:09;;;;;;;11.57;2.67;;;9.90;82.60;;;;;;4884222;29;20108;-83
2022/04/07 03:55:36;;;;;;;15.75;2.88;;;10.00;82.60;;;;;;4884346;29;20506;-83
2022/04/07 03:58:03;;;;;;;16.20;2.60;;;10.00;82.60;;;;;;4898641;29;20505;-83
2022/04/07 04:00:30;;;;;;;11.38;2.40;;;9.90;82.60;;;;;;4892287;29;20056;-82
2022/04/07 04:02:57;;;;;;;12.32;2.67;;;10.00;82.60;;;;;;4887644;29;20159;-83
2022/04/07 04:05:24;;;;;;;11.20;2.55;;;9.90;82.60;;;;;;4886106;29;20060;-83
2022/04/07 04:07:51;;;;;;;13.88;2.83;;;9.90;82.60;;;;;;4883556;29;20053;-83
2022/04/07 04:10:18;;;;;;;12.73;2.40;;;9.90;82.60;;;;;;4884398;29;20053;-82
2022/04/07 04:12:45;;;;;;;12.50;2.70;;;9.90;82.60;;;;;;4887593;29;20435;-83
2022/04/07 04:15:12;;;;;;;14.18;2.45;;;9.90;82.60;;;;;;4887519;29;20049;-83
2022/04/07 04:17:39;;;;;;;17.55;2.88;;;9.90;82.60;;;;;;4887268;29;20041;-83
2022/04/07 04:20:06;;;;;;;13.60;2.65;;;9.90;82.60;;;;;;4883411;29;20052;-83
2022/04/07 04:22:34;;;;;;;15.73;2.75;;;9.90;82.60;;;;;;4894709;29;20052;-83
2022/04/07 04:25:01;;;;;;;12.48;2.15;;;9.90;82.60;;;;;;4887706;29;20522;-83
2022/04/07 04:27:28;;;;;;;12.90;2.38;;;9.90;82.70;;;;;;4886391;29;20110;-83
2022/04/07 04:29:55;;;;;;;17.08;2.42;;;9.90;82.70;;;;;;4887192;29;20530;-83
2022/04/07 04:32:22;;;;;;;12.18;2.40;;;9.90;82.70;;;;;;4885044;29;20096;-82
2022/04/07 04:34:49;;;;;;;10.15;2.15;;;9.90;82.70;;;;;;4881984;29;20462;-82
2022/04/07 04:37:16;;;;;;;11.27;2.40;;;9.90;82.70;;;;;;4886133;29;20052;-82
2022/04/07 04:39:43;;;;;;;7.90;1.80;;;9.90;82.80;;;;;;4887297;29;20085;-82
2022/04/07 04:42:10;;;;;;;9.88;1.98;;;9.90;82.80;;;;;;4887157;29;20463;-81
2022/04/07 04:44:37;;;;;;;14.18;2.47;;;9.90;82.80;;;;;;4886536;29;20108;-81
2022/04/07 04:47:04;;;;;;;13.43;2.97;;;9.90;82.90;;;;;;4882735;29;20108;-82
2022/04/07 04:49:31;;;;;;;12.38;2.30;;;9.90;82.90;;;;;;4884068;29;20581;-82
2022/04/07 04:51:58;;;;;;;9.88;2.22;;;9.90;82.90;;;;;;4887073;29;20475;-81
2022/04/07 04:54:25;;;;;;;12.60;2.35;;;9.90;83.00;;;;;;4886843;29;20108;-82
2022/04/07 04:56:51;;;;;;;11.40;2.10;;;9.90;83.00;;;;;;4886937;29;20556;-82
2022/04/07 04:59:18;;;;;;;9.40;2.03;;;9.90;83.00;;;;;;4883958;29;20479;-82
2022/04/07 05:01:45;;;;;;;9.27;1.98;;;9.90;83.10;;;;;;4882597;29;20395;-82
2022/04/07 05:04:13;;;;;;;9.40;2.22;;;9.90;83.10;;;;;;4885998;29;20056;-82
2022/04/07 05:06:40;;;;;;;10.30;2.28;;;9.90;83.10;;;;;;4886814;29;20049;-83
2022/04/07 05:09:07;;;;;;;11.18;1.98;;;9.90;83.10;;;;;;4886870;29;20122;-84
2022/04/07 05:11:34;;;;;;;8.77;2.13;;;9.90;83.20;;;;;;4885689;29;20044;-84
2022/04/07 05:14:01;;;;;;;10.18;2.22;;;10.00;83.20;;;;;;4880970;29;20075;-83
2022/04/07 05:16:28;;;;;;;9.90;2.10;;;9.90;83.30;;;;;;4883942;29;20056;-83
2022/04/07 05:18:55;;;;;;;6.55;1.88;;;9.90;83.30;;;;;;4886561;29;20057;-84
2022/04/07 05:21:23;;;;;;;6.70;2.50;;;10.00;83.30;;;;;;4885347;29;20110;-83
2022/04/07 05:23:49;;;;;;;6.95;2.13;;;10.00;83.30;;;;;;4886554;29;20044;-83
2022/04/07 05:26:16;;;;;;;7.40;1.70;;;10.00;83.40;;;;;;4883513;29;20049;-83
2022/04/07 05:28:44;;;;;;;8.95;2.10;;;10.00;83.40;;;;;;4881980;29;20057;-83
2022/04/07 05:31:11;;;;;;;8.85;1.90;;;10.00;83.40;;;;;;4881698;29;20055;-82
2022/04/07 05:33:38;;;;;;;9.90;2.35;;;10.00;83.50;;;;;;4886173;29;20053;-83
2022/04/07 05:36:05;;;;;;;6.30;1.60;;;10.00;83.50;;;;;;4886184;29;20049;-83
2022/04/07 05:38:32;;;;;;;5.53;1.77;;;10.10;83.50;;;;;;4885463;29;20045;-83
2022/04/07 05:40:59;;;;;;;9.52;2.03;;;10.10;83.50;;;;;;4881971;29;20068;-82
2022/04/07 05:43:26;;;;;;;8.10;2.22;;;10.10;83.60;;;;;;4882472;29;20116;-82
2022/04/07 05:45:53;;;;;;;8.60;1.75;;;10.10;83.60;;;;;;4886088;29;20063;-82
2022/04/07 05:48:20;;;;;;;8.35;2.08;;;10.10;83.60;;;;;;4886180;29;20049;-82
2022/04/07 05:50:47;;;;;;;5.25;1.52;;;10.20;83.60;;;;;;4886044;29;20525;-82
2022/04/07 05:53:14;;;;;;;9.00;1.85;;;10.10;83.70;;;;;;4882791;29;20439;-82
2022/04/07 05:55:41;;;;;;;10.50;1.83;;;10.20;83.70;;;;;;4881855;29;20053;-82
2022/04/07 05:58:09;;;;;;;6.60;1.55;;;10.20;83.70;;;;;;4885249;29;20094;-82
2022/04/07 06:00:37;;;;;;;6.35;1.98;;;10.20;83.70;;;;;;4886127;29;20065;-81
2022/04/07 06:03:04;;;;;;;4.60;1.60;;;10.30;83.70;;;;;;4885780;29;20049;-83
2022/04/07 06:05:32;;;;;;;5.40;1.50;;;10.30;83.80;;;;;;4884875;29;20123;-82
2022/04/07 06:08:03;;;;;;;7.82;1.58;;;10.30;83.80;;;;;;4881698;29;20109;-82
2022/04/07 06:10:30;;;;;;;8.15;1.63;;;10.30;83.80;;;;;;4883146;29;20407;-82
2022/04/07 06:12:57;;;;;;;5.95;1.70;;;10.40;83.80;;;;;;4885320;29;20112;-82
2022/04/07 06:15:24;;;;;;;3.72;1.40;;;10.40;83.80;;;;;;4885869;29;20403;-82
2022/04/07 06:17:51;;;;;;;6.68;1.23;;;10.40;83.90;;;;;;4886035;29;20044;-82
2022/04/07 06:20:21;;;;;;;6.75;1.63;;;10.40;83.90;;;;;;4882009;29;20045;-83
2022/04/07 06:22:48;;;;;;;3.55;1.55;;;10.40;83.90;;;;;;4881453;29;20109;-83
2022/04/07 06:25:15;;;;;;;4.25;1.30;;;10.40;83.90;;;;;;4884857;29;20570;-82
2022/04/07 06:27:45;;;;;;;3.67;1.30;;;10.40;83.90;;;;;;4885622;29;20057;-82
2022/04/07 06:30:14;;;;;;;4.93;1.20;;;10.50;83.90;;;;;;4885758;29;20064;-82
2022/04/07 06:32:42;;;;;;;4.05;1.08;;;10.40;83.90;;;;;;4885945;29;20101;-82
2022/04/07 06:35:11;;;;;;;4.60;1.10;;;10.50;83.90;;;;;;4889948;29;20449;-82
2022/04/07 06:37:52;;;;;;;2.90;1.15;;;10.50;84.00;;;;;;4895993;29;20470;-82
2022/04/07 06:40:30;;;;;;;3.25;1.25;;;10.50;84.00;;;;;;4882220;29;20144;-83
2022/04/07 06:42:59;;;;;;;2.75;1.00;;;10.50;84.00;;;;;;4885348;29;20471;-83
2022/04/07 06:45:27;;;;;;;5.00;1.00;;;10.60;84.00;;;;;;4885481;29;20052;-82
2022/04/07 06:47:55;;;;;;;3.45;1.10;;;10.60;84.00;;;;;;4885324;29;20045;-82
2022/04/07 06:50:26;;;;;;;3.22;1.10;;;10.60;84.10;;;;;;4883081;29;20057;-83
2022/04/07 06:52:55;;;;;;;2.70;1.00;;;10.60;84.10;;;;;;4880966;29;20048;-82
2022/04/07 06:55:22;;;;;;;5.60;1.10;;;10.60;84.10;;;;;;4883207;29;20072;-81
2022/04/07 06:57:51;;;;;;;2.13;0.90;;;10.60;84.10;;;;;;4886555;29;20049;-82
2022/04/07 07:00:19;;;;;;;2.63;1.00;;;10.70;84.20;;;;;;4888852;29;20049;-82
2022/04/07 07:02:47;;;;;;;1.60;0.82;;;10.70;84.20;;;;;;4888753;29;20457;-82
2022/04/07 07:05:15;;;;;;;3.42;0.82;;;10.70;84.30;;;;;;4885415;29;20513;-82
2022/04/07 07:07:42;;;;;;;3.47;0.98;;;10.70;84.30;;;;;;4884482;29;20117;-82
2022/04/07 07:10:09;;;;;;;4.03;0.88;;;10.70;84.40;;;;;;4887807;29;20053;-82
2022/04/07 07:12:36;;;;;;;2.88;1.00;;;10.80;84.40;;;;;;4888471;29;20519;-82
2022/04/07 07:15:04;;;;;;;3.63;0.90;;;10.80;84.40;;;;;;4888620;29;20504;-81
2022/04/07 07:17:33;;;;;;;2.88;0.93;;;10.80;84.50;;;;;;4887312;29;20080;-81
2022/04/07 07:20:05;;;;;;;2.45;1.00;;;10.80;84.50;;;;;;4883947;29;20045;-81
2022/04/07 07:22:32;;;;;;;1.25;0.70;;;10.80;84.60;;;;;;4885282;29;20053;-82
2022/04/07 07:24:59;;;;;;;3.10;1.02;;;10.90;84.60;;;;;;4888047;29;20053;-82
2022/04/07 07:27:26;;;;;;;2.47;0.80;;;10.80;84.60;;;;;;4888393;29;20495;-81
2022/04/07 07:29:54;;;;;;;7.50;0.88;;;10.90;84.70;;;;;;4888229;29;20108;-81
2022/04/07 07:32:20;;;;;;;1.30;0.73;;;10.90;84.70;;;;;;4885932;29;20048;-82
2022/04/07 07:34:47;;;;;;;4.78;0.90;;;10.90;84.80;;;;;;4883949;29;20510;-81
2022/04/07 07:37:17;;;;;;;1.67;0.90;;;10.90;84.80;;;;;;4902025;29;20502;-82
2022/04/07 07:39:45;;;;;;;2.83;0.80;;;10.90;84.90;;;;;;4890277;29;20045;-81
2022/04/07 07:42:12;;;;;;;1.50;0.82;;;10.90;84.90;;;;;;4888155;29;20045;-81
2022/04/07 07:44:43;;;;;;;2.50;1.00;;;10.90;85.00;;;;;;4888075;29;20521;-81
2022/04/07 07:47:10;;;;;;;1.40;0.75;;;10.90;85.00;;;;;;4883152;29;20040;-81
2022/04/07 07:49:37;;;;;;;4.80;0.90;;;10.90;85.00;;;;;;4884705;29;20084;-81
2022/04/07 07:52:04;;;;;;;1.73;0.55;;;11.00;85.10;;;;;;4887943;29;20052;-81
2022/04/07 07:54:31;;;;;;;3.60;0.80;;;11.00;85.00;;;;;;4887733;29;20052;-82
2022/04/07 07:56:58;;;;;;;1.85;0.70;;;11.00;85.00;;;;;;4887898;29;20474;-81
2022/04/07 07:59:25;;;;;;;3.72;0.63;;;10.90;84.80;;;;;;4885965;29;20053;-80
2022/04/07 08:01:52;;;;;;;1.65;0.50;;;10.90;84.70;;;;;;4883496;29;20056;-81
2022/04/07 08:04:19;;;;;;;4.30;0.68;;;10.90;84.60;;;;;;4884493;29;20053;-81
2022/04/07 08:06:46;;;;;;;4.60;0.70;;;10.90;84.50;;;;;;4887781;29;20515;-82
2022/04/07 08:09:14;;;;;;;3.25;0.60;;;10.90;84.40;;;;;;4887396;29;20073;-81
2022/04/07 08:11:41;;;;;;;6.47;0.98;;;10.90;84.20;;;;;;4884679;29;20083;-81
2022/04/07 08:14:08;;;;;;;7.22;0.85;;;10.80;84.00;;;;;;4884809;29;20468;-82
2022/04/07 08:16:37;;;;;;;3.78;0.70;;;10.80;83.90;;;;;;4894917;29;20059;-81
2022/04/07 08:19:05;;;;;;;6.03;0.95;;;10.70;83.70;;;;;;4894870;29;20143;-81
2022/04/07 08:21:32;;;;;;;6.35;1.02;;;10.70;83.60;;;;;;4894518;29;20123;-82
2022/04/07 08:23:59;;;;;;;5.63;1.08;;;10.60;83.50;;;;;;4894339;29;20510;-82
2022/04/07 08:26:26;;;;;;;7.65;1.20;;;10.60;83.40;;;;;;4893374;29;20117;-82
2022/04/07 08:28:53;;;;;;;7.18;1.20;;;10.60;83.40;;;;;;4896891;29;20183;-81
2022/04/07 08:31:20;;;;;;;10.75;1.50;;;10.60;83.30;;;;;;4896677;29;20057;-82
2022/04/07 08:33:47;;;;;;;9.82;1.58;;;10.50;83.30;;;;;;4894269;29;20395;-82
2022/04/07 08:36:14;;;;;;;8.70;1.48;;;10.50;83.30;;;;;;4894137;29;20104;-82
2022/04/07 08:38:40;;;;;;;12.38;1.70;;;10.40;83.30;;;;;;4894081;29;20078;-83
2022/04/07 08:41:09;;;;;;;15.18;1.83;;;10.40;83.20;;;;;;4879853;29;20049;-82
2022/04/07 08:43:38;;;;;;;13.73;1.92;;;10.40;83.20;;;;;;4894429;29;20109;-83
2022/04/07 08:46:11;;;;;;;15.15;2.17;;;10.40;83.20;;;;;;4896435;29;20416;-82
2022/04/07 08:48:43;;;;;;;16.37;2.37;;;10.40;83.10;;;;;;4895691;29;20136;-82
2022/04/07 08:51:11;;;;;;;14.10;2.05;;;10.40;83.10;;;;;;4893679;29;20108;-83
2022/04/07 08:53:39;;;;;;;14.65;2.10;;;10.40;83.10;;;;;;4894418;29;20052;-82
2022/04/07 08:56:08;;;;;;;22.65;2.15;;;10.40;83.10;;;;;;4894423;29;20061;-83
2022/04/07 08:58:35;;;;;;;15.40;2.35;;;10.40;83.00;;;;;;4894151;29;20052;-83
2022/04/07 09:01:02;;;;;;;12.52;2.15;;;10.40;82.90;;;;;;4893882;29;20068;-84
2022/04/07 09:03:29;;;;;;;16.65;2.25;;;10.40;82.90;;;;;;4893692;29;20059;-85
2022/04/07 09:06:02;;;;;;;17.52;2.92;;;10.40;82.70;;;;;;4893698;29;20079;-84
2022/04/07 09:08:39;;;;;;;15.80;2.22;;;10.40;82.60;;;;;;4894088;29;20064;-86
2022/04/07 09:11:09;;;;;;;12.88;2.05;;;10.40;82.50;;;;;;4879266;29;20418;-85
2022/04/07 09:13:41;;;;;;;13.55;1.83;;;10.40;82.30;;;;;;4892816;29;20052;-84
2022/04/07 09:16:13;;;;;;;14.77;2.78;;;10.40;82.10;;;;;;4897760;29;20465;-83
2022/04/07 09:18:42;;;;;;;18.05;2.58;;;10.40;81.80;;;;;;4896668;29;20052;-84
2022/04/07 09:21:27;;;;;;;16.08;2.72;;;10.40;81.60;;;;;;4892716;29;20053;-84
2022/04/07 09:23:54;;;;;;;17.30;2.47;;;10.40;81.40;;;;;;4893672;29;20510;-83
2022/04/07 09:26:21;;;;;;;15.88;1.98;;;10.40;81.20;;;;;;4893711;29;20554;-84
2022/04/07 09:28:50;;;;;;;15.48;2.47;;;10.50;80.90;;;;;;4895037;29;20075;-84
2022/04/07 09:31:17;;;;;;;17.02;2.50;;;10.50;80.80;;;;;;4894113;29;20506;-83
2022/04/07 09:33:56;;;;;;;15.52;2.53;;;10.50;80.70;;;;;;4894448;29;20070;-83
2022/04/07 09:36:24;;;;;;;12.63;2.05;;;10.50;80.30;;;;;;4894109;29;20083;-85
2022/04/07 09:38:52;;;;;;;12.27;2.47;;;10.60;80.10;;;;;;4892129;29;20041;-83
2022/04/07 09:41:21;;;;;;;23.55;2.97;;;10.60;79.80;;;;;;4894806;29;20101;-83
2022/04/07 09:43:48;;;;;;;14.77;2.33;;;10.60;79.60;;;;;;4895457;29;20056;-84
2022/04/07 09:46:21;;;;;;;16.92;3.10;;;10.60;79.50;;;;;;4894678;29;20056;-83
2022/04/07 09:49:03;;;;;;;14.18;2.67;;;10.60;79.40;;;;;;4892850;29;20049;-86
2022/04/07 09:51:40;;;;;;;14.23;2.67;;;10.70;79.20;;;;;;4893254;29;20048;-84
2022/04/07 09:54:11;;;;;;;15.30;2.55;;;10.70;79.00;;;;;;4892923;29;20458;-84
2022/04/07 09:56:38;;;;;;;13.18;2.15;;;10.70;78.70;;;;;;4894459;29;20048;-84
2022/04/07 09:59:06;;;;;;;14.45;2.60;;;10.80;78.40;;;;;;4893530;29;20056;-84
2022/04/07 10:01:39;;;;;;;18.25;2.28;;;10.90;78.10;;;;;;4896878;29;20541;-86
2022/04/07 10:04:10;;;;;;;17.35;3.17;;;10.90;78.00;;;;;;4895067;29;20061;-85
2022/04/07 10:06:38;;;;;;;20.05;3.25;;;10.90;77.80;;;;;;4894379;29;20121;-85
2022/04/07 10:09:08;;;;;;;14.70;2.80;;;10.90;77.40;;;;;;4893162;29;20159;-86
2022/04/07 10:11:36;;;;;;;23.02;2.85;;;11.00;77.10;;;;;;4894272;29;20048;-85
2022/04/07 10:14:03;;;;;;;17.50;2.97;;;11.00;76.70;;;;;;4894562;29;20060;-84
2022/04/07 10:16:45;;;;;;;19.88;3.10;;;11.10;76.30;;;;;;4892735;29;20059;-85
2022/04/07 10:19:23;;;;;;;16.20;3.33;;;11.10;75.90;;;;;;4893871;29;20080;-85
2022/04/07 10:22:44;;;;;;;26.25;3.67;;;11.20;75.60;;;;;;4894602;29;20493;-85
2022/04/07 10:25:13;;;;;;;18.05;3.30;;;11.20;75.20;;;;;;4838000;29;20160;-85
2022/04/07 10:27:44;;;;;;;15.77;3.20;;;11.20;74.80;;;;;;4837794;29;20060;-88
2022/04/07 10:30:13;;;;;;;21.23;3.05;;;11.20;74.30;;;;;;4837988;29;20050;-85
2022/04/07 10:32:52;;;;;;;20.42;3.63;;;11.30;74.00;;;;;;4837714;29;20090;-86
2022/04/07 10:35:29;;;;;;;26.90;3.53;;;11.30;73.80;;;;;;4828295;29;20050;-86
2022/04/07 10:37:58;;;;;;;21.13;4.22;;;11.30;73.70;;;;;;4841234;29;20503;-84
2022/04/07 10:40:33;;;;;;;21.55;3.47;;;11.30;73.40;;;;;;4842089;29;20081;-84
2022/04/07 10:43:14;;;;;;;22.30;3.30;;;11.30;72.90;;;;;;4841198;29;20111;-85
2022/04/07 10:45:44;;;;;;;18.10;3.15;;;11.40;72.70;;;;;;4841093;29;20488;-85
2022/04/07 10:48:28;;;;;;;15.82;3.50;;;11.40;72.50;;;;;;4840558;29;20182;-85
2022/04/07 10:51:02;;;;;;;22.88;3.97;;;11.40;72.00;;;;;;4840982;29;20106;-84
2022/04/07 10:53:54;;;;;;;26.58;3.88;;;11.40;71.70;;;;;;4840891;29;20054;-85
2022/04/07 10:56:32;;;;;;;25.67;3.78;;;11.40;71.50;;;;;;4827984;29;20475;-84
2022/04/07 10:59:18;;;;;;;17.65;2.97;;;11.40;71.30;;;;;;4841348;29;20519;-85
2022/04/07 11:02:04;;;;;;;26.20;3.63;;;11.40;71.00;;;;;;4887696;29;20053;-83
2022/04/07 11:04:35;;;;;;;22.20;4.00;;;11.40;70.60;;;;;;4899776;29;20443;-83
2022/04/07 11:07:13;;;;;;;26.15;3.47;;;11.40;70.20;;;;;;4895941;29;20097;-84
2022/04/07 11:09:55;;;;;;;19.90;3.35;;;11.50;70.00;;;;;;4895770;29;20064;-84
2022/04/07 11:12:24;;;;;;;22.60;3.60;;;11.50;69.90;;;;;;4889880;29;20052;-84
2022/04/07 11:14:54;;;;;;;20.50;4.03;;;11.50;69.80;;;;;;4894778;29;20051;-84
2022/04/07 11:17:31;;;;;;;15.95;3.60;;;11.50;69.70;;;;;;4896968;29;20128;-84
2022/04/07 11:20:21;;;;;;;17.40;3.38;;;11.50;69.60;;;;;;4897056;29;20052;-84
2022/04/07 11:22:56;;;;;;;21.58;3.70;;;11.50;69.40;;;;;;4895254;29;20135;-85
2022/04/07 11:25:30;;;;;;;23.42;3.28;;;11.50;69.20;;;;;;4897799;29;20467;-85
2022/04/07 11:28:22;;;;;;;20.88;3.95;;;11.60;69.10;;;;;;4895448;29;20052;-83
2022/04/07 11:30:54;;;;;;;19.45;3.70;;;11.60;69.00;;;;;;4896573;29;20049;-83
2022/04/07 11:36:00;;;;;;;18.50;3.70;;;11.70;69.10;;;;;;4895111;29;20494;-83
2022/04/07 11:38:28;;;;;;;19.67;3.60;;;11.70;69.10;;;;;;4895568;29;20071;-83
2022/04/07 11:41:11;;;;;;;20.00;3.53;;;11.80;69.00;;;;;;4897322;29;20069;-84
2022/04/07 11:43:42;;;;;;;18.60;3.42;;;11.80;68.90;;;;;;4895273;29;20478;-84
2022/04/07 11:46:09;;;;;;;17.00;3.03;;;11.90;68.80;;;;;;4896201;29;20104;-85
2022/04/07 11:48:56;;;;;;;23.13;3.55;;;11.90;68.60;;;;;;4894591;29;20082;-84
2022/04/07 11:51:25;;;;;;;13.25;2.90;;;12.00;68.50;;;;;;4894936;29;20554;-84
2022/04/07 11:53:53;;;;;;;25.70;3.55;;;12.00;68.40;;;;;;4895409;29;20045;-83
2022/04/07 11:56:25;;;;;;;20.98;3.72;;;12.00;68.40;;;;;;4895146;29;20101;-84
2022/04/07 11:58:55;;;;;;;14.45;3.30;;;12.10;68.10;;;;;;4897216;29;20048;-84
2022/04/07 12:01:23;;;;;;;18.30;3.55;;;12.20;67.70;;;;;;4896965;29;20057;-83
2022/04/07 12:03:55;;;;;;;19.63;3.38;;;12.20;67.20;;;;;;4895762;29;20059;-83
2022/04/07 12:06:28;;;;;;;22.30;4.05;;;12.20;66.90;;;;;;4894967;29;20139;-84
2022/04/07 12:08:55;;;;;;;22.35;3.88;;;12.20;66.80;;;;;;4894750;29;20051;-83
2022/04/07 12:11:24;;;;;;;25.80;3.45;;;12.30;67.00;;;;;;4895074;29;20060;-83
2022/04/07 12:13:53;;;;;;;25.17;3.60;;;12.30;67.10;;;;;;4897227;29;20059;-84
2022/04/07 12:16:22;;;;;;;19.58;3.42;;;12.30;67.10;;;;;;4895492;29;20056;-83
2022/04/07 12:19:00;;;;;;;15.65;3.17;;;12.40;67.10;;;;;;4894064;29;20461;-83
2022/04/07 12:21:29;;;;;;;17.50;3.25;;;12.40;67.00;;;;;;4894532;29;20053;-83
2022/04/07 12:24:12;;;;;;;17.50;3.22;;;12.40;66.80;;;;;;4894477;29;20104;-83
2022/04/07 12:26:47;;;;;;;19.05;3.75;;;12.50;66.60;;;;;;4894830;29;20083;-84
2022/04/07 12:29:16;;;;;;;20.92;3.13;;;12.50;66.30;;;;;;4880319;29;20514;-83
2022/04/07 12:31:43;;;;;;;18.48;3.13;;;12.70;66.00;;;;;;4897589;29;20064;-83
2022/04/07 12:34:13;;;;;;;18.30;3.60;;;12.70;65.30;;;;;;4897287;29;20080;-83
2022/04/07 12:36:42;;;;;;;23.52;4.03;;;12.70;64.90;;;;;;4893980;29;20044;-83
2022/04/07 12:39:11;;;;;;;17.55;3.65;;;12.70;64.40;;;;;;4895811;29;20473;-84
2022/04/07 12:41:40;;;;;;;15.70;3.47;;;12.80;64.20;;;;;;4895758;29;20100;-82
2022/04/07 12:44:09;;;;;;;19.55;3.90;;;12.80;64.20;;;;;;4879400;29;20510;-85
2022/04/07 12:46:52;;;;;;;19.30;3.60;;;12.80;64.30;;;;;;4894133;29;20072;-84
2022/04/07 12:49:27;;;;;;;20.13;3.63;;;12.80;64.30;;;;;;4895733;29;20466;-84
2022/04/07 12:52:00;;;;;;;21.88;3.75;;;12.80;64.10;;;;;;4895536;29;20052;-84
2022/04/07 12:54:28;;;;;;;;;;;12.80;64.00;;;;;;4895461;29;20521;-81
2022/04/07 12:57:14;;;;;;;23.30;3.78;;;12.80;64.00;;;;;;4894769;29;19971;-83